sensor_id;sensor_type;location;lat;lon;timestamp;P1;durP1;ratioP1;P2;durP2;ratioP2
37267;SDS011;23154;52.542;13.362;2023-04-25T00:00:20;14.13;;;5.28;;
37267;SDS011;23154;52.542;13.362;2023-04-25T00:02:46;11.60;;;4.13;;
37267;SDS011;23154;52.542;13.362;2023-04-25T00:05:12;9.25;;;3.95;;
37267;SDS011;23154;52.542;13.362;2023-04-25T00:07:40;9.68;;;4.70;;
37267;SDS011;23154;52.542;13.362;2023-04-25T00:10:08;8.30;;;3.47;;
37267;SDS011;23154;52.542;13.362;2023-04-25T00:12:36;12.88;;;3.95;;
37267;SDS011;23154;52.542;13.362;2023-04-25T00:15:02;9.82;;;3.50;;
37267;SDS011;23154;52.542;13.362;2023-04-25T00:17:29;9.43;;;3.40;;
37267;SDS011;23154;52.542;13.362;2023-04-25T00:19:56;10.48;;;3.85;;
37267;SDS011;23154;52.542;13.362;2023-04-25T00:22:23;10.80;;;3.92;;
37267;SDS011;23154;52.542;13.362;2023-04-25T00:24:49;15.65;;;4.10;;
37267;SDS011;23154;52.542;13.362;2023-04-25T00:27:15;10.40;;;3.60;;
37267;SDS011;23154;52.542;13.362;2023-04-25T00:29:41;10.00;;;4.13;;
37267;SDS011;23154;52.542;13.362;2023-04-25T00:32:07;11.25;;;3.85;;
37267;SDS011;23154;52.542;13.362;2023-04-25T00:34:33;8.27;;;3.35;;
37267;SDS011;23154;52.542;13.362;2023-04-25T00:36:59;8.32;;;3.60;;
37267;SDS011;23154;52.542;13.362;2023-04-25T00:39:27;11.70;;;3.70;;
37267;SDS011;23154;52.542;13.362;2023-04-25T00:41:53;9.00;;;4.07;;
37267;SDS011;23154;52.542;13.362;2023-04-25T00:44:20;6.30;;;3.20;;
37267;SDS011;23154;52.542;13.362;2023-04-25T00:46:49;9.27;;;3.80;;
37267;SDS011;23154;52.542;13.362;2023-04-25T00:49:16;10.02;;;3.53;;
37267;SDS011;23154;52.542;13.362;2023-04-25T00:51:42;11.27;;;3.80;;
37267;SDS011;23154;52.542;13.362;2023-04-25T00:54:10;12.90;;;3.72;;
37267;SDS011;23154;52.542;13.362;2023-04-25T00:56:36;9.93;;;3.63;;
37267;SDS011;23154;52.542;13.362;2023-04-25T00:59:02;9.73;;;4.05;;
37267;SDS011;23154;52.542;13.362;2023-04-25T01:01:28;8.70;;;3.72;;
37267;SDS011;23154;52.542;13.362;2023-04-25T01:03:56;11.90;;;4.18;;
37267;SDS011;23154;52.542;13.362;2023-04-25T01:06:23;13.35;;;4.05;;
37267;SDS011;23154;52.542;13.362;2023-04-25T01:08:50;9.35;;;4.10;;
37267;SDS011;23154;52.542;13.362;2023-04-25T01:11:16;10.25;;;3.95;;
37267;SDS011;23154;52.542;13.362;2023-04-25T01:13:42;11.63;;;4.40;;
37267;SDS011;23154;52.542;13.362;2023-04-25T01:16:08;8.50;;;3.95;;
37267;SDS011;23154;52.542;13.362;2023-04-25T01:18:34;9.63;;;4.13;;
37267;SDS011;23154;52.542;13.362;2023-04-25T01:21:07;11.52;;;3.80;;
37267;SDS011;23154;52.542;13.362;2023-04-25T01:23:34;13.25;;;4.15;;
37267;SDS011;23154;52.542;13.362;2023-04-25T01:26:01;10.10;;;4.03;;
37267;SDS011;23154;52.542;13.362;2023-04-25T01:28:27;11.60;;;3.83;;
37267;SDS011;23154;52.542;13.362;2023-04-25T01:30:54;10.90;;;4.25;;
37267;SDS011;23154;52.542;13.362;2023-04-25T01:33:20;8.95;;;3.85;;
37267;SDS011;23154;52.542;13.362;2023-04-25T01:35:47;8.65;;;3.50;;
37267;SDS011;23154;52.542;13.362;2023-04-25T01:38:14;12.65;;;3.88;;
37267;SDS011;23154;52.542;13.362;2023-04-25T01:40:41;11.23;;;4.15;;
37267;SDS011;23154;52.542;13.362;2023-04-25T01:43:07;10.38;;;4.18;;
37267;SDS011;23154;52.542;13.362;2023-04-25T01:45:36;9.25;;;3.30;;
37267;SDS011;23154;52.542;13.362;2023-04-25T01:48:05;17.50;;;4.45;;
37267;SDS011;23154;52.542;13.362;2023-04-25T01:50:31;13.05;;;4.05;;
37267;SDS011;23154;52.542;13.362;2023-04-25T01:52:57;18.60;;;5.18;;
37267;SDS011;23154;52.542;13.362;2023-04-25T01:55:23;10.45;;;3.90;;
37267;SDS011;23154;52.542;13.362;2023-04-25T01:57:49;10.93;;;3.92;;
37267;SDS011;23154;52.542;13.362;2023-04-25T02:00:15;11.88;;;4.35;;
37267;SDS011;23154;52.542;13.362;2023-04-25T02:02:41;13.57;;;4.47;;
37267;SDS011;23154;52.542;13.362;2023-04-25T02:05:07;9.95;;;4.22;;
37267;SDS011;23154;52.542;13.362;2023-04-25T02:07:33;13.82;;;4.10;;
37267;SDS011;23154;52.542;13.362;2023-04-25T02:09:59;12.48;;;4.10;;
37267;SDS011;23154;52.542;13.362;2023-04-25T02:12:26;17.52;;;4.57;;
37267;SDS011;23154;52.542;13.362;2023-04-25T02:14:52;11.07;;;4.32;;
37267;SDS011;23154;52.542;13.362;2023-04-25T02:17:18;10.02;;;4.20;;
37267;SDS011;23154;52.542;13.362;2023-04-25T02:19:46;13.45;;;4.38;;
37267;SDS011;23154;52.542;13.362;2023-04-25T02:22:12;12.50;;;4.20;;
37267;SDS011;23154;52.542;13.362;2023-04-25T02:24:38;12.43;;;4.25;;
37267;SDS011;23154;52.542;13.362;2023-04-25T02:27:04;13.63;;;4.68;;
37267;SDS011;23154;52.542;13.362;2023-04-25T02:29:31;13.20;;;4.45;;
37267;SDS011;23154;52.542;13.362;2023-04-25T02:31:57;17.02;;;4.57;;
37267;SDS011;23154;52.542;13.362;2023-04-25T02:34:23;11.90;;;4.38;;
37267;SDS011;23154;52.542;13.362;2023-04-25T02:36:49;11.25;;;4.18;;
37267;SDS011;23154;52.542;13.362;2023-04-25T02:39:18;11.60;;;4.38;;
37267;SDS011;23154;52.542;13.362;2023-04-25T02:41:44;12.48;;;4.50;;
37267;SDS011;23154;52.542;13.362;2023-04-25T02:44:10;15.85;;;4.78;;
37267;SDS011;23154;52.542;13.362;2023-04-25T02:46:36;13.23;;;5.00;;
37267;SDS011;23154;52.542;13.362;2023-04-25T02:49:02;10.30;;;4.15;;
37267;SDS011;23154;52.542;13.362;2023-04-25T02:51:28;10.18;;;4.28;;
37267;SDS011;23154;52.542;13.362;2023-04-25T02:53:55;14.25;;;4.75;;
37267;SDS011;23154;52.542;13.362;2023-04-25T02:56:21;12.25;;;4.20;;
37267;SDS011;23154;52.542;13.362;2023-04-25T02:58:47;13.48;;;4.30;;
37267;SDS011;23154;52.542;13.362;2023-04-25T03:01:13;14.13;;;4.32;;
37267;SDS011;23154;52.542;13.362;2023-04-25T03:03:39;15.00;;;4.95;;
37267;SDS011;23154;52.542;13.362;2023-04-25T03:06:05;14.70;;;4.60;;
37267;SDS011;23154;52.542;13.362;2023-04-25T03:08:31;18.17;;;4.82;;
37267;SDS011;23154;52.542;13.362;2023-04-25T03:10:59;11.32;;;4.47;;
37267;SDS011;23154;52.542;13.362;2023-04-25T03:13:25;15.10;;;5.25;;
37267;SDS011;23154;52.542;13.362;2023-04-25T03:15:52;11.20;;;4.28;;
37267;SDS011;23154;52.542;13.362;2023-04-25T03:18:18;16.70;;;5.45;;
37267;SDS011;23154;52.542;13.362;2023-04-25T03:20:44;12.60;;;4.80;;
37267;SDS011;23154;52.542;13.362;2023-04-25T03:23:11;13.13;;;4.80;;
37267;SDS011;23154;52.542;13.362;2023-04-25T03:25:37;12.77;;;4.25;;
37267;SDS011;23154;52.542;13.362;2023-04-25T03:28:03;13.55;;;4.60;;
37267;SDS011;23154;52.542;13.362;2023-04-25T03:30:29;13.85;;;4.53;;
37267;SDS011;23154;52.542;13.362;2023-04-25T03:32:55;14.65;;;4.40;;
37267;SDS011;23154;52.542;13.362;2023-04-25T03:35:21;16.30;;;5.05;;
37267;SDS011;23154;52.542;13.362;2023-04-25T03:37:48;14.00;;;4.90;;
37267;SDS011;23154;52.542;13.362;2023-04-25T03:40:14;11.35;;;4.85;;
37267;SDS011;23154;52.542;13.362;2023-04-25T03:42:40;14.25;;;4.53;;
37267;SDS011;23154;52.542;13.362;2023-04-25T03:45:08;13.90;;;4.78;;
37267;SDS011;23154;52.542;13.362;2023-04-25T03:47:34;13.10;;;4.60;;
37267;SDS011;23154;52.542;13.362;2023-04-25T03:50:00;9.35;;;3.90;;
37267;SDS011;23154;52.542;13.362;2023-04-25T03:52:27;14.07;;;4.25;;
37267;SDS011;23154;52.542;13.362;2023-04-25T03:54:53;13.55;;;4.35;;
37267;SDS011;23154;52.542;13.362;2023-04-25T03:57:19;10.20;;;4.10;;
37267;SDS011;23154;52.542;13.362;2023-04-25T03:59:45;11.60;;;4.10;;
37267;SDS011;23154;52.542;13.362;2023-04-25T04:02:11;13.95;;;4.80;;
37267;SDS011;23154;52.542;13.362;2023-04-25T04:04:37;11.02;;;4.20;;
37267;SDS011;23154;52.542;13.362;2023-04-25T04:07:03;12.15;;;4.50;;
37267;SDS011;23154;52.542;13.362;2023-04-25T04:09:30;14.57;;;4.88;;
37267;SDS011;23154;52.542;13.362;2023-04-25T04:11:56;14.90;;;5.05;;
37267;SDS011;23154;52.542;13.362;2023-04-25T04:14:22;12.43;;;4.70;;
37267;SDS011;23154;52.542;13.362;2023-04-25T04:16:48;15.45;;;5.47;;
37267;SDS011;23154;52.542;13.362;2023-04-25T04:19:14;15.20;;;5.40;;
37267;SDS011;23154;52.542;13.362;2023-04-25T04:21:40;17.30;;;4.63;;
37267;SDS011;23154;52.542;13.362;2023-04-25T04:24:06;16.77;;;5.20;;
37267;SDS011;23154;52.542;13.362;2023-04-25T04:26:32;14.23;;;5.25;;
37267;SDS011;23154;52.542;13.362;2023-04-25T04:28:59;10.32;;;4.20;;
37267;SDS011;23154;52.542;13.362;2023-04-25T04:31:26;11.95;;;4.35;;
37267;SDS011;23154;52.542;13.362;2023-04-25T04:33:52;15.23;;;4.75;;
37267;SDS011;23154;52.542;13.362;2023-04-25T04:36:18;12.13;;;4.63;;
37267;SDS011;23154;52.542;13.362;2023-04-25T04:38:48;12.88;;;4.18;;
37267;SDS011;23154;52.542;13.362;2023-04-25T04:41:14;13.85;;;4.82;;
37267;SDS011;23154;52.542;13.362;2023-04-25T04:43:40;12.75;;;4.93;;
37267;SDS011;23154;52.542;13.362;2023-04-25T04:46:06;11.75;;;4.47;;
37267;SDS011;23154;52.542;13.362;2023-04-25T04:48:35;12.68;;;4.88;;
37267;SDS011;23154;52.542;13.362;2023-04-25T04:51:01;9.85;;;4.63;;
37267;SDS011;23154;52.542;13.362;2023-04-25T04:53:27;13.43;;;4.57;;
37267;SDS011;23154;52.542;13.362;2023-04-25T04:55:53;14.75;;;4.80;;
37267;SDS011;23154;52.542;13.362;2023-04-25T04:58:20;13.77;;;4.72;;
37267;SDS011;23154;52.542;13.362;2023-04-25T05:00:46;10.13;;;4.18;;
37267;SDS011;23154;52.542;13.362;2023-04-25T05:03:12;13.95;;;5.10;;
37267;SDS011;23154;52.542;13.362;2023-04-25T05:05:38;11.13;;;4.50;;
37267;SDS011;23154;52.542;13.362;2023-04-25T05:08:07;12.98;;;4.20;;
37267;SDS011;23154;52.542;13.362;2023-04-25T05:10:33;12.75;;;4.70;;
37267;SDS011;23154;52.542;13.362;2023-04-25T05:12:59;13.10;;;4.50;;
37267;SDS011;23154;52.542;13.362;2023-04-25T05:15:25;14.05;;;4.82;;
37267;SDS011;23154;52.542;13.362;2023-04-25T05:17:51;11.93;;;4.72;;
37267;SDS011;23154;52.542;13.362;2023-04-25T05:20:17;13.82;;;4.90;;
37267;SDS011;23154;52.542;13.362;2023-04-25T05:22:44;10.60;;;4.50;;
37267;SDS011;23154;52.542;13.362;2023-04-25T05:25:10;12.93;;;5.07;;
37267;SDS011;23154;52.542;13.362;2023-04-25T05:27:36;12.30;;;5.20;;
37267;SDS011;23154;52.542;13.362;2023-04-25T05:30:02;15.10;;;5.32;;
37267;SDS011;23154;52.542;13.362;2023-04-25T05:32:28;11.25;;;4.57;;
37267;SDS011;23154;52.542;13.362;2023-04-25T05:34:54;15.98;;;4.97;;
37267;SDS011;23154;52.542;13.362;2023-04-25T05:37:20;15.35;;;4.97;;
37267;SDS011;23154;52.542;13.362;2023-04-25T05:39:46;13.48;;;4.80;;
37267;SDS011;23154;52.542;13.362;2023-04-25T05:42:12;17.30;;;5.05;;
37267;SDS011;23154;52.542;13.362;2023-04-25T05:44:38;12.60;;;4.78;;
37267;SDS011;23154;52.542;13.362;2023-04-25T05:47:05;12.60;;;4.78;;
37267;SDS011;23154;52.542;13.362;2023-04-25T05:49:31;16.60;;;5.25;;
37267;SDS011;23154;52.542;13.362;2023-04-25T05:51:57;16.75;;;5.60;;
37267;SDS011;23154;52.542;13.362;2023-04-25T05:54:23;16.52;;;4.85;;
37267;SDS011;23154;52.542;13.362;2023-04-25T05:56:50;13.38;;;4.95;;
37267;SDS011;23154;52.542;13.362;2023-04-25T05:59:16;13.40;;;4.82;;
37267;SDS011;23154;52.542;13.362;2023-04-25T06:01:42;15.27;;;5.82;;
37267;SDS011;23154;52.542;13.362;2023-04-25T06:04:08;16.40;;;5.90;;
37267;SDS011;23154;52.542;13.362;2023-04-25T06:06:34;15.98;;;5.28;;
37267;SDS011;23154;52.542;13.362;2023-04-25T06:09:00;16.80;;;5.75;;
37267;SDS011;23154;52.542;13.362;2023-04-25T06:11:26;17.67;;;5.70;;
37267;SDS011;23154;52.542;13.362;2023-04-25T06:13:52;15.55;;;4.93;;
37267;SDS011;23154;52.542;13.362;2023-04-25T06:16:19;14.77;;;5.15;;
37267;SDS011;23154;52.542;13.362;2023-04-25T06:18:45;16.90;;;5.05;;
37267;SDS011;23154;52.542;13.362;2023-04-25T06:21:11;29.75;;;7.43;;
37267;SDS011;23154;52.542;13.362;2023-04-25T06:23:37;33.20;;;9.10;;
37267;SDS011;23154;52.542;13.362;2023-04-25T06:26:03;29.73;;;8.45;;
37267;SDS011;23154;52.542;13.362;2023-04-25T06:28:29;20.20;;;6.63;;
37267;SDS011;23154;52.542;13.362;2023-04-25T06:30:55;12.98;;;4.75;;
37267;SDS011;23154;52.542;13.362;2023-04-25T06:33:21;15.95;;;5.32;;
37267;SDS011;23154;52.542;13.362;2023-04-25T06:35:49;15.40;;;5.38;;
37267;SDS011;23154;52.542;13.362;2023-04-25T06:38:15;15.50;;;4.70;;
37267;SDS011;23154;52.542;13.362;2023-04-25T06:40:41;15.27;;;5.30;;
37267;SDS011;23154;52.542;13.362;2023-04-25T06:43:07;17.95;;;5.13;;
37267;SDS011;23154;52.542;13.362;2023-04-25T06:45:33;17.65;;;5.45;;
37267;SDS011;23154;52.542;13.362;2023-04-25T06:47:59;14.82;;;4.88;;
37267;SDS011;23154;52.542;13.362;2023-04-25T06:50:25;13.55;;;5.20;;
37267;SDS011;23154;52.542;13.362;2023-04-25T06:52:51;12.88;;;4.95;;
37267;SDS011;23154;52.542;13.362;2023-04-25T06:55:17;12.98;;;4.40;;
37267;SDS011;23154;52.542;13.362;2023-04-25T06:57:43;11.15;;;4.68;;
37267;SDS011;23154;52.542;13.362;2023-04-25T07:00:10;12.73;;;4.50;;
37267;SDS011;23154;52.542;13.362;2023-04-25T07:02:36;11.95;;;4.78;;
37267;SDS011;23154;52.542;13.362;2023-04-25T07:05:02;13.00;;;5.00;;
37267;SDS011;23154;52.542;13.362;2023-04-25T07:07:32;13.05;;;4.70;;
37267;SDS011;23154;52.542;13.362;2023-04-25T07:09:58;13.05;;;4.57;;
37267;SDS011;23154;52.542;13.362;2023-04-25T07:12:24;16.25;;;4.72;;
37267;SDS011;23154;52.542;13.362;2023-04-25T07:14:50;17.17;;;5.05;;
37267;SDS011;23154;52.542;13.362;2023-04-25T07:17:16;12.68;;;4.90;;
37267;SDS011;23154;52.542;13.362;2023-04-25T07:19:42;12.45;;;4.35;;
37267;SDS011;23154;52.542;13.362;2023-04-25T07:22:08;11.32;;;4.13;;
37267;SDS011;23154;52.542;13.362;2023-04-25T07:24:34;13.93;;;4.50;;
37267;SDS011;23154;52.542;13.362;2023-04-25T07:27:00;19.70;;;5.90;;
37267;SDS011;23154;52.542;13.362;2023-04-25T07:29:27;13.50;;;4.38;;
37267;SDS011;23154;52.542;13.362;2023-04-25T07:31:53;10.80;;;4.63;;
37267;SDS011;23154;52.542;13.362;2023-04-25T07:34:19;14.98;;;4.70;;
37267;SDS011;23154;52.542;13.362;2023-04-25T07:36:45;8.90;;;3.95;;
37267;SDS011;23154;52.542;13.362;2023-04-25T07:39:11;13.98;;;5.07;;
37267;SDS011;23154;52.542;13.362;2023-04-25T07:41:39;11.95;;;4.38;;
37267;SDS011;23154;52.542;13.362;2023-04-25T07:44:05;11.55;;;4.55;;
37267;SDS011;23154;52.542;13.362;2023-04-25T07:46:31;16.02;;;5.07;;
37267;SDS011;23154;52.542;13.362;2023-04-25T07:48:57;14.30;;;4.88;;
37267;SDS011;23154;52.542;13.362;2023-04-25T07:51:23;18.02;;;5.03;;
37267;SDS011;23154;52.542;13.362;2023-04-25T07:53:49;14.88;;;4.78;;
37267;SDS011;23154;52.542;13.362;2023-04-25T07:56:15;14.38;;;4.63;;
37267;SDS011;23154;52.542;13.362;2023-04-25T07:58:41;18.08;;;4.35;;
37267;SDS011;23154;52.542;13.362;2023-04-25T08:01:07;13.55;;;4.53;;
37267;SDS011;23154;52.542;13.362;2023-04-25T08:03:33;11.60;;;4.18;;
37267;SDS011;23154;52.542;13.362;2023-04-25T08:06:00;15.38;;;5.18;;
37267;SDS011;23154;52.542;13.362;2023-04-25T08:08:26;20.70;;;5.55;;
37267;SDS011;23154;52.542;13.362;2023-04-25T08:10:52;18.17;;;4.72;;
37267;SDS011;23154;52.542;13.362;2023-04-25T08:13:18;12.48;;;5.07;;
37267;SDS011;23154;52.542;13.362;2023-04-25T08:15:44;17.25;;;5.22;;
37267;SDS011;23154;52.542;13.362;2023-04-25T08:18:10;12.15;;;5.07;;
37267;SDS011;23154;52.542;13.362;2023-04-25T08:20:36;17.15;;;5.32;;
37267;SDS011;23154;52.542;13.362;2023-04-25T08:23:02;14.57;;;4.72;;
37267;SDS011;23154;52.542;13.362;2023-04-25T08:25:28;18.15;;;5.30;;
37267;SDS011;23154;52.542;13.362;2023-04-25T08:27:54;16.55;;;5.20;;
37267;SDS011;23154;52.542;13.362;2023-04-25T08:30:21;15.63;;;5.22;;
37267;SDS011;23154;52.542;13.362;2023-04-25T08:32:47;17.08;;;5.90;;
37267;SDS011;23154;52.542;13.362;2023-04-25T08:35:13;13.02;;;5.22;;
37267;SDS011;23154;52.542;13.362;2023-04-25T08:37:39;13.60;;;5.57;;
37267;SDS011;23154;52.542;13.362;2023-04-25T08:40:05;14.98;;;5.63;;
37267;SDS011;23154;52.542;13.362;2023-04-25T08:42:32;12.20;;;5.10;;
37267;SDS011;23154;52.542;13.362;2023-04-25T08:45:00;21.05;;;6.25;;
37267;SDS011;23154;52.542;13.362;2023-04-25T08:47:28;19.20;;;6.60;;
37267;SDS011;23154;52.542;13.362;2023-04-25T08:49:54;12.10;;;6.15;;
37267;SDS011;23154;52.542;13.362;2023-04-25T08:52:22;18.50;;;6.70;;
37267;SDS011;23154;52.542;13.362;2023-04-25T08:54:49;18.55;;;6.20;;
37267;SDS011;23154;52.542;13.362;2023-04-25T08:57:15;19.63;;;6.45;;
37267;SDS011;23154;52.542;13.362;2023-04-25T08:59:41;13.30;;;6.10;;
37267;SDS011;23154;52.542;13.362;2023-04-25T09:02:10;14.07;;;6.43;;
37267;SDS011;23154;52.542;13.362;2023-04-25T09:04:39;19.05;;;6.97;;
37267;SDS011;23154;52.542;13.362;2023-04-25T09:07:05;15.30;;;6.28;;
37267;SDS011;23154;52.542;13.362;2023-04-25T09:09:31;18.35;;;6.75;;
37267;SDS011;23154;52.542;13.362;2023-04-25T09:11:57;16.45;;;6.60;;
37267;SDS011;23154;52.542;13.362;2023-04-25T09:14:24;14.82;;;6.55;;
37267;SDS011;23154;52.542;13.362;2023-04-25T09:19:26;14.10;;;6.80;;
37267;SDS011;23154;52.542;13.362;2023-04-25T09:21:59;15.73;;;6.50;;
37267;SDS011;23154;52.542;13.362;2023-04-25T09:24:42;15.43;;;7.43;;
37267;SDS011;23154;52.542;13.362;2023-04-25T09:27:09;14.60;;;6.57;;
37267;SDS011;23154;52.542;13.362;2023-04-25T09:29:36;18.67;;;7.03;;
37267;SDS011;23154;52.542;13.362;2023-04-25T09:34:41;18.48;;;8.20;;
37267;SDS011;23154;52.542;13.362;2023-04-25T09:39:34;16.63;;;7.95;;
37267;SDS011;23154;52.542;13.362;2023-04-25T09:42:00;12.25;;;6.57;;
37267;SDS011;23154;52.542;13.362;2023-04-25T09:44:28;18.00;;;7.47;;
37267;SDS011;23154;52.542;13.362;2023-04-25T09:46:54;14.88;;;7.30;;
37267;SDS011;23154;52.542;13.362;2023-04-25T09:49:20;11.38;;;7.20;;
37267;SDS011;23154;52.542;13.362;2023-04-25T09:51:56;13.43;;;7.28;;
37267;SDS011;23154;52.542;13.362;2023-04-25T09:54:25;13.27;;;7.85;;
37267;SDS011;23154;52.542;13.362;2023-04-25T09:56:52;15.55;;;7.75;;
37267;SDS011;23154;52.542;13.362;2023-04-25T09:59:19;14.93;;;7.10;;
37267;SDS011;23154;52.542;13.362;2023-04-25T10:01:46;13.93;;;7.50;;
37267;SDS011;23154;52.542;13.362;2023-04-25T10:04:13;13.70;;;7.65;;
37267;SDS011;23154;52.542;13.362;2023-04-25T10:06:41;15.27;;;7.95;;
37267;SDS011;23154;52.542;13.362;2023-04-25T10:09:08;13.38;;;7.95;;
37267;SDS011;23154;52.542;13.362;2023-04-25T10:11:34;17.13;;;8.10;;
37267;SDS011;23154;52.542;13.362;2023-04-25T10:14:00;14.05;;;7.78;;
37267;SDS011;23154;52.542;13.362;2023-04-25T10:16:27;13.77;;;7.70;;
37267;SDS011;23154;52.542;13.362;2023-04-25T10:18:54;18.83;;;8.48;;
37267;SDS011;23154;52.542;13.362;2023-04-25T10:21:20;16.88;;;7.60;;
37267;SDS011;23154;52.542;13.362;2023-04-25T10:23:48;14.18;;;7.25;;
37267;SDS011;23154;52.542;13.362;2023-04-25T10:26:14;16.58;;;7.88;;
37267;SDS011;23154;52.542;13.362;2023-04-25T10:29:00;13.98;;;7.97;;
37267;SDS011;23154;52.542;13.362;2023-04-25T10:31:27;15.00;;;7.97;;
37267;SDS011;23154;52.542;13.362;2023-04-25T10:33:53;15.27;;;8.25;;
37267;SDS011;23154;52.542;13.362;2023-04-25T10:36:23;14.77;;;7.57;;
37267;SDS011;23154;52.542;13.362;2023-04-25T10:38:52;15.73;;;7.88;;
37267;SDS011;23154;52.542;13.362;2023-04-25T10:41:19;14.40;;;7.40;;
37267;SDS011;23154;52.542;13.362;2023-04-25T10:43:46;15.32;;;8.02;;
37267;SDS011;23154;52.542;13.362;2023-04-25T10:48:43;13.95;;;7.70;;
37267;SDS011;23154;52.542;13.362;2023-04-25T10:51:12;14.93;;;8.95;;
37267;SDS011;23154;52.542;13.362;2023-04-25T10:53:41;16.13;;;9.35;;
37267;SDS011;23154;52.542;13.362;2023-04-25T10:56:17;13.65;;;8.50;;
37267;SDS011;23154;52.542;13.362;2023-04-25T10:58:43;14.77;;;8.68;;
37267;SDS011;23154;52.542;13.362;2023-04-25T11:01:09;15.60;;;8.52;;
37267;SDS011;23154;52.542;13.362;2023-04-25T11:03:42;15.45;;;8.57;;
37267;SDS011;23154;52.542;13.362;2023-04-25T11:06:19;13.80;;;8.70;;
37267;SDS011;23154;52.542;13.362;2023-04-25T11:08:49;16.40;;;8.95;;
37267;SDS011;23154;52.542;13.362;2023-04-25T11:11:16;15.57;;;8.85;;
37267;SDS011;23154;52.542;13.362;2023-04-25T11:13:43;15.32;;;8.50;;
37267;SDS011;23154;52.542;13.362;2023-04-25T11:16:10;15.93;;;9.18;;
37267;SDS011;23154;52.542;13.362;2023-04-25T11:18:36;19.02;;;9.35;;
37267;SDS011;23154;52.542;13.362;2023-04-25T11:21:03;16.83;;;8.80;;
37267;SDS011;23154;52.542;13.362;2023-04-25T11:23:29;17.45;;;9.70;;
37267;SDS011;23154;52.542;13.362;2023-04-25T11:25:56;15.30;;;9.43;;
37267;SDS011;23154;52.542;13.362;2023-04-25T11:28:22;16.40;;;8.95;;
37267;SDS011;23154;52.542;13.362;2023-04-25T11:30:48;17.30;;;9.02;;
37267;SDS011;23154;52.542;13.362;2023-04-25T11:33:18;14.05;;;8.90;;
37267;SDS011;23154;52.542;13.362;2023-04-25T11:35:44;13.82;;;8.18;;
37267;SDS011;23154;52.542;13.362;2023-04-25T11:38:10;14.10;;;8.50;;
37267;SDS011;23154;52.542;13.362;2023-04-25T11:40:36;14.63;;;8.82;;
37267;SDS011;23154;52.542;13.362;2023-04-25T11:43:02;13.48;;;8.52;;
37267;SDS011;23154;52.542;13.362;2023-04-25T11:45:28;17.13;;;8.90;;
37267;SDS011;23154;52.542;13.362;2023-04-25T11:47:56;14.68;;;8.85;;
37267;SDS011;23154;52.542;13.362;2023-04-25T11:50:22;13.25;;;9.32;;
37267;SDS011;23154;52.542;13.362;2023-04-25T11:52:48;13.70;;;8.95;;
37267;SDS011;23154;52.542;13.362;2023-04-25T11:57:41;16.15;;;9.25;;
37267;SDS011;23154;52.542;13.362;2023-04-25T12:00:11;16.35;;;9.38;;
37267;SDS011;23154;52.542;13.362;2023-04-25T12:02:51;13.30;;;8.75;;
37267;SDS011;23154;52.542;13.362;2023-04-25T12:05:18;15.15;;;9.93;;
37267;SDS011;23154;52.542;13.362;2023-04-25T12:07:45;14.40;;;9.30;;
37267;SDS011;23154;52.542;13.362;2023-04-25T12:10:14;15.73;;;9.48;;
37267;SDS011;23154;52.542;13.362;2023-04-25T12:12:44;14.05;;;9.25;;
37267;SDS011;23154;52.542;13.362;2023-04-25T12:15:22;14.93;;;8.90;;
37267;SDS011;23154;52.542;13.362;2023-04-25T12:17:49;16.05;;;8.68;;
37267;SDS011;23154;52.542;13.362;2023-04-25T12:20:16;18.10;;;8.45;;
37267;SDS011;23154;52.542;13.362;2023-04-25T12:22:44;14.65;;;8.70;;
37267;SDS011;23154;52.542;13.362;2023-04-25T12:25:13;17.67;;;9.07;;
37267;SDS011;23154;52.542;13.362;2023-04-25T12:28:08;12.73;;;8.50;;
37267;SDS011;23154;52.542;13.362;2023-04-25T12:30:51;15.00;;;8.55;;
37267;SDS011;23154;52.542;13.362;2023-04-25T12:33:17;17.35;;;9.10;;
37267;SDS011;23154;52.542;13.362;2023-04-25T12:35:43;14.02;;;9.50;;
37267;SDS011;23154;52.542;13.362;2023-04-25T12:38:09;13.43;;;8.82;;
37267;SDS011;23154;52.542;13.362;2023-04-25T12:40:36;14.15;;;9.25;;
37267;SDS011;23154;52.542;13.362;2023-04-25T12:43:02;17.88;;;9.05;;
37267;SDS011;23154;52.542;13.362;2023-04-25T12:45:28;15.52;;;8.80;;
37267;SDS011;23154;52.542;13.362;2023-04-25T12:47:56;14.43;;;9.20;;
37267;SDS011;23154;52.542;13.362;2023-04-25T12:50:22;16.48;;;9.00;;
37267;SDS011;23154;52.542;13.362;2023-04-25T12:52:48;15.35;;;9.45;;
37267;SDS011;23154;52.542;13.362;2023-04-25T12:55:14;13.45;;;8.85;;
37267;SDS011;23154;52.542;13.362;2023-04-25T12:57:40;16.00;;;9.13;;
37267;SDS011;23154;52.542;13.362;2023-04-25T13:00:06;13.25;;;9.02;;
37267;SDS011;23154;52.542;13.362;2023-04-25T13:02:34;14.02;;;9.38;;
37267;SDS011;23154;52.542;13.362;2023-04-25T13:05:00;17.45;;;9.23;;
37267;SDS011;23154;52.542;13.362;2023-04-25T13:07:26;13.77;;;8.93;;
37267;SDS011;23154;52.542;13.362;2023-04-25T13:09:52;14.98;;;9.07;;
37267;SDS011;23154;52.542;13.362;2023-04-25T13:12:18;15.45;;;9.07;;
37267;SDS011;23154;52.542;13.362;2023-04-25T13:14:44;13.73;;;9.20;;
37267;SDS011;23154;52.542;13.362;2023-04-25T13:17:10;13.50;;;8.75;;
37267;SDS011;23154;52.542;13.362;2023-04-25T13:19:36;15.32;;;8.98;;
37267;SDS011;23154;52.542;13.362;2023-04-25T13:22:03;13.45;;;9.32;;
37267;SDS011;23154;52.542;13.362;2023-04-25T13:24:29;13.55;;;8.68;;
37267;SDS011;23154;52.542;13.362;2023-04-25T13:26:55;15.07;;;9.07;;
37267;SDS011;23154;52.542;13.362;2023-04-25T13:29:21;14.88;;;9.18;;
37267;SDS011;23154;52.542;13.362;2023-04-25T13:31:47;13.45;;;8.75;;
37267;SDS011;23154;52.542;13.362;2023-04-25T13:34:13;15.05;;;9.27;;
37267;SDS011;23154;52.542;13.362;2023-04-25T13:36:40;13.60;;;8.88;;
37267;SDS011;23154;52.542;13.362;2023-04-25T13:39:06;16.23;;;8.82;;
37267;SDS011;23154;52.542;13.362;2023-04-25T13:41:32;15.73;;;9.20;;
37267;SDS011;23154;52.542;13.362;2023-04-25T13:43:58;13.10;;;8.80;;
37267;SDS011;23154;52.542;13.362;2023-04-25T13:46:24;14.80;;;9.10;;
37267;SDS011;23154;52.542;13.362;2023-04-25T13:48:50;18.40;;;9.75;;
37267;SDS011;23154;52.542;13.362;2023-04-25T13:51:16;13.68;;;8.90;;
37267;SDS011;23154;52.542;13.362;2023-04-25T13:53:43;14.05;;;8.80;;
37267;SDS011;23154;52.542;13.362;2023-04-25T13:56:09;15.13;;;9.55;;
37267;SDS011;23154;52.542;13.362;2023-04-25T13:58:36;14.07;;;9.10;;
37267;SDS011;23154;52.542;13.362;2023-04-25T14:01:02;15.57;;;9.52;;
37267;SDS011;23154;52.542;13.362;2023-04-25T14:03:28;14.40;;;8.60;;
37267;SDS011;23154;52.542;13.362;2023-04-25T14:05:55;12.95;;;9.02;;
37267;SDS011;23154;52.542;13.362;2023-04-25T14:08:21;14.95;;;8.80;;
37267;SDS011;23154;52.542;13.362;2023-04-25T14:10:47;14.32;;;9.30;;
37267;SDS011;23154;52.542;13.362;2023-04-25T14:13:13;14.25;;;9.50;;
37267;SDS011;23154;52.542;13.362;2023-04-25T14:15:39;14.27;;;9.40;;
37267;SDS011;23154;52.542;13.362;2023-04-25T14:18:05;13.05;;;9.48;;
37267;SDS011;23154;52.542;13.362;2023-04-25T14:20:31;14.30;;;9.63;;
37267;SDS011;23154;52.542;13.362;2023-04-25T14:22:57;13.18;;;8.93;;
37267;SDS011;23154;52.542;13.362;2023-04-25T14:25:23;14.63;;;9.20;;
37267;SDS011;23154;52.542;13.362;2023-04-25T14:27:50;16.45;;;8.95;;
37267;SDS011;23154;52.542;13.362;2023-04-25T14:30:17;13.07;;;8.80;;
37267;SDS011;23154;52.542;13.362;2023-04-25T14:32:43;14.25;;;8.98;;